Terminal Aerodrome Forecast
Issued by NWS

Home | Current Version | Previous Version | Text Only | Print | Product List | Glossary On
Versions: 1 2 3 4 5 6 7 8 9 10 11 12 13 14
420
FTUS46 KSEW 140545
TAFBLI
TAF
KBLI 140545Z 1406/1506 16018G28KT P6SM BKN030 OVC045
     FM141100 17010KT P6SM SCT015 OVC025
     FM142300 15014KT P6SM -RA SCT015 OVC025=

USA.gov is the U.S. government's official web portal to all federal, state and local government web resources and services.